createdAt,value
2023-03-22T00:02:57.210Z,100164.75
2023-03-22T00:05:59.733Z,100166.34
2023-03-22T00:09:01.865Z,100168.16
2023-03-22T00:12:04.563Z,100161.50
2023-03-22T00:15:07.611Z,100174.69
2023-03-22T00:18:12.545Z,100166.47
2023-03-22T00:21:16.706Z,100171.34
2023-03-22T00:24:21.092Z,100170.75
2023-03-22T00:27:23.273Z,100161.19
2023-03-22T00:30:25.863Z,100159.59
2023-03-22T00:33:30.404Z,100161.94
2023-03-22T00:36:32.789Z,100157.47
2023-03-22T00:39:35.213Z,100168.09
2023-03-22T00:42:39.188Z,100162.34
2023-03-22T00:45:41.553Z,100158.06
2023-03-22T00:48:44.132Z,100156.09
2023-03-22T00:51:46.488Z,100157.12
2023-03-22T00:54:49.380Z,100157.84
2023-03-22T00:57:51.674Z,100159.94
2023-03-22T01:00:54.150Z,100160.25
2023-03-22T01:03:56.493Z,100166.63
2023-03-22T01:07:03.428Z,100164.78
2023-03-22T01:10:06.689Z,100166.00
2023-03-22T01:13:11.268Z,100155.22
2023-03-22T01:16:13.493Z,100153.84
2023-03-22T01:19:16.344Z,100156.84
2023-03-22T01:22:18.559Z,100151.94
2023-03-22T01:25:21.778Z,100145.75
2023-03-22T01:28:26.862Z,100140.78
2023-03-22T01:31:29.565Z,100141.38
2023-03-22T01:34:31.941Z,100138.69
2023-03-22T01:37:34.866Z,100140.91
2023-03-22T01:40:38.524Z,100132.44
2023-03-22T01:43:42.045Z,100135.22
2023-03-22T01:46:46.929Z,100135.91
2023-03-22T01:49:49.789Z,100146.81
2023-03-22T01:52:53.381Z,100141.81
2023-03-22T01:55:57.675Z,100141.53
2023-03-22T01:59:01.104Z,100147.41
2023-03-22T02:02:05.681Z,100143.81
2023-03-22T02:05:09.005Z,100147.72
2023-03-22T02:08:14.847Z,100147.72
2023-03-22T02:11:30.813Z,100145.22
2023-03-22T02:14:50.453Z,100142.50
2023-03-22T02:18:11.268Z,100145.81
2023-03-22T02:21:32.534Z,100151.41
2023-03-22T02:25:07.222Z,100152.91
2023-03-22T02:28:40.954Z,100149.31
2023-03-22T02:31:58.725Z,100158.59
2023-03-22T02:35:09.748Z,100151.63
2023-03-22T02:38:15.215Z,100158.28
2023-03-22T02:41:25.343Z,100157.50
2023-03-22T02:44:52.154Z,100164.00
2023-03-22T02:48:06.737Z,100161.59
2023-03-22T02:51:19.853Z,100164.44
2023-03-22T02:54:44.753Z,100165.22
2023-03-22T02:57:56.869Z,100169.16
2023-03-22T03:01:09.158Z,100167.72
2023-03-22T03:04:18.259Z,100168.31
2023-03-22T03:07:24.663Z,100159.72
2023-03-22T03:10:28.474Z,100165.72
2023-03-22T03:13:30.869Z,100166.88
2023-03-22T03:16:37.222Z,100172.28
2023-03-22T03:19:52.209Z,100165.72
2023-03-22T03:23:00.099Z,100162.72
2023-03-22T03:26:21.425Z,100160.47
2023-03-22T03:29:36.058Z,100157.78
2023-03-22T03:32:48.081Z,100155.09
2023-03-22T03:35:59.864Z,100158.50
2023-03-22T03:39:04.125Z,100167.31
2023-03-22T03:42:12.406Z,100162.13
2023-03-22T03:45:16.312Z,100162.84
2023-03-22T03:48:22.300Z,100164.53
2023-03-22T03:51:27.285Z,100175.91
2023-03-22T03:54:29.952Z,100179.75
2023-03-22T03:57:32.171Z,100190.50
2023-03-22T04:00:35.564Z,100175.19
2023-03-22T04:03:40.691Z,100175.09
2023-03-22T04:06:43.957Z,100162.37
2023-03-22T04:09:46.713Z,100183.19
2023-03-22T04:12:49.214Z,100190.38
2023-03-22T04:15:55.431Z,100178.47
2023-03-22T04:18:58.007Z,100167.22
2023-03-22T04:22:01.402Z,100172.34
2023-03-22T04:25:11.663Z,100187.66
2023-03-22T04:28:14.614Z,100178.03
2023-03-22T04:31:18.464Z,100178.88
2023-03-22T04:34:21.639Z,100177.34
2023-03-22T04:37:27.482Z,100170.06
2023-03-22T04:40:36.410Z,100173.56
2023-03-22T04:43:39.393Z,100185.53
2023-03-22T04:46:44.435Z,100183.88
2023-03-22T04:49:46.720Z,100184.34
2023-03-22T04:52:51.315Z,100187.75
2023-03-22T04:55:57.924Z,100185.53
2023-03-22T04:59:01.371Z,100196.84
2023-03-22T05:02:03.927Z,100189.72
2023-03-22T05:05:07.470Z,100198.81
2023-03-22T05:08:09.785Z,100203.88
2023-03-22T05:11:16.279Z,100204.69
2023-03-22T05:14:19.870Z,100205.47
2023-03-22T05:17:22.581Z,100219.09
2023-03-22T05:20:25.202Z,100216.25
2023-03-22T05:23:28.985Z,100209.94
2023-03-22T05:26:31.606Z,100204.94
2023-03-22T05:29:36.932Z,100209.66
2023-03-22T05:32:43.805Z,100210.97
2023-03-22T05:35:46.561Z,100216.63
2023-03-22T05:38:50.650Z,100221.88
2023-03-22T05:41:53.557Z,100223.81
2023-03-22T05:44:56.268Z,100225.66
2023-03-22T05:47:59.323Z,100225.78
2023-03-22T05:51:06.078Z,100209.63
2023-03-22T05:54:09.652Z,100218.62
2023-03-22T05:57:13.060Z,100222.81
2023-03-22T06:00:16.258Z,100229.16
2023-03-22T06:03:22.382Z,100233.06
2023-03-22T06:06:28.036Z,100236.47
2023-03-22T06:09:31.114Z,100240.59
2023-03-22T06:12:34.120Z,100244.44
2023-03-22T06:15:37.417Z,100245.97
2023-03-22T06:18:39.781Z,100249.38
2023-03-22T06:21:43.288Z,100256.03
2023-03-22T06:24:49.053Z,100256.16
2023-03-22T06:27:52.324Z,100253.63
2023-03-22T06:30:56.339Z,100247.91
2023-03-22T06:33:59.231Z,100257.25
2023-03-22T06:37:01.879Z,100259.09
2023-03-22T06:40:07.369Z,100263.34
2023-03-22T06:43:09.726Z,100260.31
2023-03-22T06:46:14.084Z,100253.06
2023-03-22T06:49:19.338Z,100255.03
2023-03-22T06:52:22.150Z,100253.06
2023-03-22T06:55:24.788Z,100254.72
2023-03-22T06:58:27.353Z,100254.78
2023-03-22T07:01:29.609Z,100266.06
2023-03-22T07:04:33.105Z,100261.00
2023-03-22T07:07:35.385Z,100268.19
2023-03-22T07:10:39.238Z,100272.72
2023-03-22T07:13:41.901Z,100268.31
2023-03-22T07:16:44.781Z,100272.62
2023-03-22T07:19:46.996Z,100280.00
2023-03-22T07:22:50.845Z,100281.28
2023-03-22T07:25:55.825Z,100283.84
2023-03-22T07:28:58.761Z,100282.78
2023-03-22T07:32:01.831Z,100266.06
2023-03-22T07:35:05.851Z,100278.31
2023-03-22T07:38:08.354Z,100280.56
2023-03-22T07:41:11.652Z,100278.06
2023-03-22T07:44:18.237Z,100268.97
2023-03-22T07:47:37.834Z,100271.03
2023-03-22T07:50:42.887Z,100271.34
2023-03-22T07:53:45.362Z,100279.00
2023-03-22T07:56:48.152Z,100277.84
2023-03-22T07:59:50.693Z,100270.53
2023-03-22T08:02:58.900Z,100282.62
2023-03-22T08:06:12.838Z,100273.06
2023-03-22T08:09:21.090Z,100277.53
2023-03-22T08:12:29.516Z,100273.22
2023-03-22T08:15:38.952Z,100273.50
2023-03-22T08:19:03.700Z,100266.28
2023-03-22T08:22:15.703Z,100257.31
2023-03-22T08:25:26.905Z,100272.34
2023-03-22T08:28:37.652Z,100274.09
2023-03-22T08:31:45.234Z,100275.97
2023-03-22T08:34:48.746Z,100281.78
2023-03-22T08:37:57.178Z,100292.75
2023-03-22T08:41:00.507Z,100291.56
2023-03-22T08:44:04.615Z,100291.78
2023-03-22T08:47:09.475Z,100286.59
2023-03-22T08:50:13.148Z,100289.19
2023-03-22T08:53:16.200Z,100283.75
2023-03-22T08:56:22.639Z,100280.75
2023-03-22T08:59:26.992Z,100285.34
2023-03-22T09:02:30.251Z,100289.50
2023-03-22T09:05:32.724Z,100285.34
2023-03-22T09:08:35.338Z,100275.91
2023-03-22T09:11:41.424Z,100274.09
2023-03-22T09:14:46.739Z,100278.19
2023-03-22T09:17:49.353Z,100281.28
2023-03-22T09:20:52.775Z,100287.31
2023-03-22T09:23:56.315Z,100288.31
2023-03-22T09:26:59.929Z,100287.44
2023-03-22T09:30:02.396Z,100282.94
2023-03-22T09:33:06.517Z,100286.22
2023-03-22T09:36:11.902Z,100278.19
2023-03-22T09:39:16.310Z,100279.25
2023-03-22T09:42:28.089Z,100269.78
2023-03-22T09:45:38.661Z,100268.22
2023-03-22T09:48:43.212Z,100270.78
2023-03-22T09:51:48.940Z,100272.66
2023-03-22T09:54:53.111Z,100269.03
2023-03-22T09:58:37.046Z,100268.81
2023-03-22T10:02:04.712Z,100272.97
2023-03-22T10:05:50.174Z,100274.19
2023-03-22T10:09:04.370Z,100274.03
2023-03-22T10:12:28.221Z,100268.00
2023-03-22T10:15:36.785Z,100265.19
2023-03-22T10:18:45.025Z,100266.56
2023-03-22T10:21:50.585Z,100269.47
2023-03-22T10:24:53.890Z,100268.41
2023-03-22T10:27:57.946Z,100270.97
2023-03-22T10:31:02.718Z,100266.56
2023-03-22T10:34:11.526Z,100262.50
2023-03-22T10:37:32.145Z,100257.41
2023-03-22T10:40:36.981Z,100263.25
2023-03-22T10:43:42.303Z,100259.41
2023-03-22T10:46:45.484Z,100260.84
2023-03-22T10:49:54.641Z,100255.56
2023-03-22T10:53:12.648Z,100251.03
2023-03-22T10:56:18.739Z,100253.75
2023-03-22T10:59:47.299Z,100256.47
2023-03-22T11:02:58.392Z,100250.31
2023-03-22T11:06:00.604Z,100249.59
2023-03-22T11:09:22.312Z,100252.31
2023-03-22T11:12:24.953Z,100247.94
2023-03-22T11:15:32.880Z,100241.09
2023-03-22T11:18:35.143Z,100235.69
2023-03-22T11:21:37.605Z,100233.94
2023-03-22T11:24:39.932Z,100228.19
2023-03-22T11:27:56.458Z,100224.41
2023-03-22T11:31:06.622Z,100222.63
2023-03-22T11:34:17.328Z,100223.41
2023-03-22T11:37:22.387Z,100217.44
2023-03-22T11:40:31.509Z,100217.16
2023-03-22T11:43:42.214Z,100202.44
2023-03-22T11:46:58.453Z,100200.66
2023-03-22T11:50:05.486Z,100195.00
2023-03-22T11:53:15.070Z,100201.94
2023-03-22T11:56:21.261Z,100198.12
2023-03-22T11:59:29.772Z,100191.69
2023-03-22T12:02:44.260Z,100198.12
2023-03-22T12:05:50.177Z,100193.22
2023-03-22T12:08:58.498Z,100199.47
2023-03-22T12:12:03.629Z,100198.00
2023-03-22T12:15:10.887Z,100198.56
2023-03-22T12:18:22.915Z,100190.16
2023-03-22T12:21:25.411Z,100191.72
2023-03-22T12:24:32.242Z,100192.81
2023-03-22T12:27:38.201Z,100186.91
2023-03-22T12:30:53.863Z,100195.63
2023-03-22T12:33:59.456Z,100190.47
2023-03-22T12:37:05.565Z,100183.69
2023-03-22T12:40:24.430Z,100195.50
2023-03-22T12:43:42.592Z,100195.25
2023-03-22T12:46:49.495Z,100192.56
2023-03-22T12:50:12.988Z,100189.25
2023-03-22T12:53:17.975Z,100177.75
2023-03-22T12:56:26.324Z,100181.94
2023-03-22T12:59:31.392Z,100172.37
2023-03-22T13:02:36.261Z,100172.84
2023-03-22T13:05:39.269Z,100170.06
2023-03-22T13:09:08.801Z,100163.28
2023-03-22T13:12:17.079Z,100153.88
2023-03-22T13:15:41.167Z,100146.84
2023-03-22T13:18:44.434Z,100146.06
2023-03-22T13:21:49.189Z,100146.75
2023-03-22T13:25:08.536Z,100137.56
2023-03-22T13:28:26.187Z,100141.44
2023-03-22T13:31:38.228Z,100136.34
2023-03-22T13:34:46.937Z,100138.13
2023-03-22T13:37:51.096Z,100134.34
2023-03-22T13:41:02.667Z,100127.16
2023-03-22T13:44:36.017Z,100130.50
2023-03-22T13:47:45.389Z,100135.09
2023-03-22T13:50:48.223Z,100127.03
2023-03-22T13:54:00.327Z,100126.19
2023-03-22T13:57:03.106Z,100122.31
2023-03-22T14:00:20.710Z,100125.56
2023-03-22T14:03:29.637Z,100111.66
2023-03-22T14:06:36.323Z,100110.34
2023-03-22T14:09:48.713Z,100108.75
2023-03-22T14:13:14.451Z,100107.38
2023-03-22T14:16:45.358Z,100110.12
2023-03-22T14:19:49.969Z,100105.34
